sensor_id;sensor_type;location;lat;lon;timestamp;P1;durP1;ratioP1;P2;durP2;ratioP2
21758;SDS011;11041;50.854;20.580;2023-05-14T00:01:17;33.35;;;21.17;;
21758;SDS011;11041;50.854;20.580;2023-05-14T00:03:44;34.72;;;21.58;;
21758;SDS011;11041;50.854;20.580;2023-05-14T00:06:11;32.75;;;20.85;;
21758;SDS011;11041;50.854;20.580;2023-05-14T00:08:37;32.22;;;21.02;;
21758;SDS011;11041;50.854;20.580;2023-05-14T00:11:04;28.20;;;20.50;;
21758;SDS011;11041;50.854;20.580;2023-05-14T00:13:33;34.33;;;22.75;;
21758;SDS011;11041;50.854;20.580;2023-05-14T00:16:01;32.15;;;22.08;;
21758;SDS011;11041;50.854;20.580;2023-05-14T00:18:28;37.67;;;24.38;;
21758;SDS011;11041;50.854;20.580;2023-05-14T00:20:54;36.63;;;24.42;;
21758;SDS011;11041;50.854;20.580;2023-05-14T00:23:21;36.38;;;24.00;;
21758;SDS011;11041;50.854;20.580;2023-05-14T00:25:49;33.55;;;24.20;;
21758;SDS011;11041;50.854;20.580;2023-05-14T00:28:15;37.35;;;24.73;;
21758;SDS011;11041;50.854;20.580;2023-05-14T00:30:42;36.10;;;25.10;;
21758;SDS011;11041;50.854;20.580;2023-05-14T00:33:09;37.00;;;25.35;;
21758;SDS011;11041;50.854;20.580;2023-05-14T00:35:35;33.95;;;24.33;;
21758;SDS011;11041;50.854;20.580;2023-05-14T00:38:02;37.08;;;25.65;;
21758;SDS011;11041;50.854;20.580;2023-05-14T00:40:29;34.78;;;24.08;;
21758;SDS011;11041;50.854;20.580;2023-05-14T00:42:55;37.47;;;24.35;;
21758;SDS011;11041;50.854;20.580;2023-05-14T00:45:22;39.40;;;25.10;;
21758;SDS011;11041;50.854;20.580;2023-05-14T00:47:48;41.83;;;25.98;;
21758;SDS011;11041;50.854;20.580;2023-05-14T00:50:16;37.25;;;26.50;;
21758;SDS011;11041;50.854;20.580;2023-05-14T00:52:43;33.75;;;23.75;;
21758;SDS011;11041;50.854;20.580;2023-05-14T00:55:10;34.60;;;24.35;;
21758;SDS011;11041;50.854;20.580;2023-05-14T00:57:41;38.38;;;23.48;;
21758;SDS011;11041;50.854;20.580;2023-05-14T01:00:07;42.13;;;25.30;;
21758;SDS011;11041;50.854;20.580;2023-05-14T01:02:35;35.47;;;22.77;;
21758;SDS011;11041;50.854;20.580;2023-05-14T01:05:01;33.88;;;23.80;;
21758;SDS011;11041;50.854;20.580;2023-05-14T01:07:34;37.08;;;25.23;;
21758;SDS011;11041;50.854;20.580;2023-05-14T01:16:17;29.77;;;21.15;;
21758;SDS011;11041;50.854;20.580;2023-05-14T01:18:45;28.33;;;20.88;;
21758;SDS011;11041;50.854;20.580;2023-05-14T01:24:05;32.95;;;21.33;;
21758;SDS011;11041;50.854;20.580;2023-05-14T01:26:33;29.63;;;20.05;;
21758;SDS011;11041;50.854;20.580;2023-05-14T01:31:49;23.38;;;16.00;;
21758;SDS011;11041;50.854;20.580;2023-05-14T01:34:20;33.92;;;18.92;;
21758;SDS011;11041;50.854;20.580;2023-05-14T01:36:51;28.58;;;19.88;;
21758;SDS011;11041;50.854;20.580;2023-05-14T01:39:20;28.77;;;19.83;;
21758;SDS011;11041;50.854;20.580;2023-05-14T01:41:51;29.17;;;19.27;;
21758;SDS011;11041;50.854;20.580;2023-05-14T01:44:20;27.63;;;18.95;;
21758;SDS011;11041;50.854;20.580;2023-05-14T01:46:47;25.92;;;18.23;;
21758;SDS011;11041;50.854;20.580;2023-05-14T01:49:13;25.25;;;16.92;;
21758;SDS011;11041;50.854;20.580;2023-05-14T01:51:42;23.20;;;15.25;;
21758;SDS011;11041;50.854;20.580;2023-05-14T01:54:09;21.88;;;13.57;;
21758;SDS011;11041;50.854;20.580;2023-05-14T01:56:35;24.38;;;16.35;;
21758;SDS011;11041;50.854;20.580;2023-05-14T01:59:02;22.33;;;14.75;;
21758;SDS011;11041;50.854;20.580;2023-05-14T02:01:29;20.13;;;13.75;;
21758;SDS011;11041;50.854;20.580;2023-05-14T02:03:56;15.38;;;12.45;;
21758;SDS011;11041;50.854;20.580;2023-05-14T02:06:22;15.70;;;11.32;;
21758;SDS011;11041;50.854;20.580;2023-05-14T02:08:49;16.15;;;12.27;;
21758;SDS011;11041;50.854;20.580;2023-05-14T02:11:15;15.98;;;12.55;;
21758;SDS011;11041;50.854;20.580;2023-05-14T02:13:41;17.63;;;11.88;;
21758;SDS011;11041;50.854;20.580;2023-05-14T02:16:08;19.50;;;12.57;;
21758;SDS011;11041;50.854;20.580;2023-05-14T02:18:34;16.13;;;11.65;;
21758;SDS011;11041;50.854;20.580;2023-05-14T02:21:01;14.68;;;12.02;;
21758;SDS011;11041;50.854;20.580;2023-05-14T02:23:27;15.32;;;12.57;;
21758;SDS011;11041;50.854;20.580;2023-05-14T02:25:54;17.77;;;12.55;;
21758;SDS011;11041;50.854;20.580;2023-05-14T02:28:20;17.33;;;12.57;;
21758;SDS011;11041;50.854;20.580;2023-05-14T02:30:47;16.08;;;12.77;;
21758;SDS011;11041;50.854;20.580;2023-05-14T02:33:13;16.67;;;12.98;;
21758;SDS011;11041;50.854;20.580;2023-05-14T02:35:40;19.48;;;13.32;;
21758;SDS011;11041;50.854;20.580;2023-05-14T02:38:06;18.33;;;13.52;;
21758;SDS011;11041;50.854;20.580;2023-05-14T02:40:33;19.33;;;12.48;;
21758;SDS011;11041;50.854;20.580;2023-05-14T02:43:01;13.60;;;11.25;;
21758;SDS011;11041;50.854;20.580;2023-05-14T02:45:28;14.90;;;10.82;;
21758;SDS011;11041;50.854;20.580;2023-05-14T02:47:55;13.43;;;9.75;;
21758;SDS011;11041;50.854;20.580;2023-05-14T02:50:21;11.98;;;9.02;;
21758;SDS011;11041;50.854;20.580;2023-05-14T02:52:48;16.98;;;11.60;;
21758;SDS011;11041;50.854;20.580;2023-05-14T02:55:14;18.42;;;13.48;;
21758;SDS011;11041;50.854;20.580;2023-05-14T02:57:41;15.80;;;13.05;;
21758;SDS011;11041;50.854;20.580;2023-05-14T03:00:07;20.98;;;14.38;;
21758;SDS011;11041;50.854;20.580;2023-05-14T03:02:36;20.27;;;12.98;;
21758;SDS011;11041;50.854;20.580;2023-05-14T03:05:03;18.67;;;13.05;;
21758;SDS011;11041;50.854;20.580;2023-05-14T03:07:29;18.67;;;12.25;;
21758;SDS011;11041;50.854;20.580;2023-05-14T03:09:56;18.48;;;12.68;;
21758;SDS011;11041;50.854;20.580;2023-05-14T03:12:24;18.90;;;14.55;;
21758;SDS011;11041;50.854;20.580;2023-05-14T03:14:51;23.13;;;15.13;;
21758;SDS011;11041;50.854;20.580;2023-05-14T03:17:17;24.77;;;17.35;;
21758;SDS011;11041;50.854;20.580;2023-05-14T03:19:44;23.17;;;17.35;;
21758;SDS011;11041;50.854;20.580;2023-05-14T03:22:10;28.10;;;20.23;;
21758;SDS011;11041;50.854;20.580;2023-05-14T03:24:38;24.60;;;17.23;;
21758;SDS011;11041;50.854;20.580;2023-05-14T03:27:05;22.63;;;17.08;;
21758;SDS011;11041;50.854;20.580;2023-05-14T03:29:32;27.20;;;17.38;;
21758;SDS011;11041;50.854;20.580;2023-05-14T03:31:59;23.88;;;17.52;;
21758;SDS011;11041;50.854;20.580;2023-05-14T03:34:26;26.25;;;17.42;;
21758;SDS011;11041;50.854;20.580;2023-05-14T03:36:52;29.00;;;16.73;;
21758;SDS011;11041;50.854;20.580;2023-05-14T03:39:22;24.52;;;16.73;;
21758;SDS011;11041;50.854;20.580;2023-05-14T03:41:49;19.02;;;14.88;;
21758;SDS011;11041;50.854;20.580;2023-05-14T03:44:16;22.48;;;14.40;;
21758;SDS011;11041;50.854;20.580;2023-05-14T03:46:43;23.63;;;16.15;;
21758;SDS011;11041;50.854;20.580;2023-05-14T03:49:11;21.45;;;15.07;;
21758;SDS011;11041;50.854;20.580;2023-05-14T03:51:37;26.65;;;17.77;;
21758;SDS011;11041;50.854;20.580;2023-05-14T03:54:05;27.92;;;17.95;;
21758;SDS011;11041;50.854;20.580;2023-05-14T03:56:32;24.67;;;18.02;;
21758;SDS011;11041;50.854;20.580;2023-05-14T03:58:59;23.75;;;17.65;;
21758;SDS011;11041;50.854;20.580;2023-05-14T04:01:26;24.08;;;16.27;;
21758;SDS011;11041;50.854;20.580;2023-05-14T04:03:53;17.70;;;12.93;;
21758;SDS011;11041;50.854;20.580;2023-05-14T04:06:19;23.10;;;16.15;;
21758;SDS011;11041;50.854;20.580;2023-05-14T04:08:47;24.02;;;16.80;;
21758;SDS011;11041;50.854;20.580;2023-05-14T04:11:14;22.63;;;15.32;;
21758;SDS011;11041;50.854;20.580;2023-05-14T04:13:41;19.27;;;15.68;;
21758;SDS011;11041;50.854;20.580;2023-05-14T04:16:07;24.33;;;15.95;;
21758;SDS011;11041;50.854;20.580;2023-05-14T04:18:35;22.30;;;16.60;;
21758;SDS011;11041;50.854;20.580;2023-05-14T04:21:02;21.83;;;15.73;;
21758;SDS011;11041;50.854;20.580;2023-05-14T04:23:28;24.38;;;16.80;;
21758;SDS011;11041;50.854;20.580;2023-05-14T04:25:56;20.75;;;16.17;;
21758;SDS011;11041;50.854;20.580;2023-05-14T04:28:24;21.50;;;16.38;;
21758;SDS011;11041;50.854;20.580;2023-05-14T04:30:50;19.75;;;15.88;;
21758;SDS011;11041;50.854;20.580;2023-05-14T04:33:18;25.10;;;15.80;;
21758;SDS011;11041;50.854;20.580;2023-05-14T04:35:45;23.42;;;16.25;;
21758;SDS011;11041;50.854;20.580;2023-05-14T04:38:12;23.25;;;15.95;;
21758;SDS011;11041;50.854;20.580;2023-05-14T04:40:39;18.85;;;13.48;;
21758;SDS011;11041;50.854;20.580;2023-05-14T04:43:06;16.98;;;13.07;;
21758;SDS011;11041;50.854;20.580;2023-05-14T04:45:32;17.35;;;13.10;;
21758;SDS011;11041;50.854;20.580;2023-05-14T04:47:59;22.98;;;13.40;;
21758;SDS011;11041;50.854;20.580;2023-05-14T04:50:28;19.50;;;13.80;;
21758;SDS011;11041;50.854;20.580;2023-05-14T04:52:55;18.70;;;13.70;;
21758;SDS011;11041;50.854;20.580;2023-05-14T04:55:22;16.35;;;12.63;;
21758;SDS011;11041;50.854;20.580;2023-05-14T04:57:49;20.50;;;14.15;;
21758;SDS011;11041;50.854;20.580;2023-05-14T05:00:16;18.08;;;12.68;;
21758;SDS011;11041;50.854;20.580;2023-05-14T05:02:44;24.35;;;12.82;;
21758;SDS011;11041;50.854;20.580;2023-05-14T05:05:10;15.30;;;11.75;;
21758;SDS011;11041;50.854;20.580;2023-05-14T05:07:37;16.38;;;10.75;;
21758;SDS011;11041;50.854;20.580;2023-05-14T05:10:04;17.17;;;10.30;;
21758;SDS011;11041;50.854;20.580;2023-05-14T05:12:32;13.95;;;9.75;;
21758;SDS011;11041;50.854;20.580;2023-05-14T05:14:59;13.93;;;10.90;;
21758;SDS011;11041;50.854;20.580;2023-05-14T05:17:27;14.55;;;10.07;;
21758;SDS011;11041;50.854;20.580;2023-05-14T05:19:54;12.57;;;8.90;;
21758;SDS011;11041;50.854;20.580;2023-05-14T05:22:21;13.52;;;9.75;;
21758;SDS011;11041;50.854;20.580;2023-05-14T05:24:48;10.65;;;8.55;;
21758;SDS011;11041;50.854;20.580;2023-05-14T05:27:15;12.38;;;8.68;;
21758;SDS011;11041;50.854;20.580;2023-05-14T05:29:42;10.10;;;8.55;;
21758;SDS011;11041;50.854;20.580;2023-05-14T05:32:09;10.00;;;7.13;;
21758;SDS011;11041;50.854;20.580;2023-05-14T05:34:36;12.23;;;8.48;;
21758;SDS011;11041;50.854;20.580;2023-05-14T05:37:03;10.90;;;7.65;;
21758;SDS011;11041;50.854;20.580;2023-05-14T05:39:30;11.93;;;8.20;;
21758;SDS011;11041;50.854;20.580;2023-05-14T05:42:03;10.88;;;7.47;;
21758;SDS011;11041;50.854;20.580;2023-05-14T05:44:31;12.02;;;8.30;;
21758;SDS011;11041;50.854;20.580;2023-05-14T05:46:58;9.80;;;8.13;;
21758;SDS011;11041;50.854;20.580;2023-05-14T05:49:24;10.65;;;7.72;;
21758;SDS011;11041;50.854;20.580;2023-05-14T05:51:50;6.30;;;5.53;;
21758;SDS011;11041;50.854;20.580;2023-05-14T05:54:17;4.97;;;4.28;;
21758;SDS011;11041;50.854;20.580;2023-05-14T05:56:43;6.72;;;3.90;;
21758;SDS011;11041;50.854;20.580;2023-05-14T05:59:10;3.70;;;3.40;;
21758;SDS011;11041;50.854;20.580;2023-05-14T06:01:36;3.13;;;2.72;;
21758;SDS011;11041;50.854;20.580;2023-05-14T06:04:05;3.38;;;3.08;;
21758;SDS011;11041;50.854;20.580;2023-05-14T06:06:31;4.40;;;2.75;;
21758;SDS011;11041;50.854;20.580;2023-05-14T06:08:58;3.78;;;3.20;;
21758;SDS011;11041;50.854;20.580;2023-05-14T06:11:26;6.57;;;3.15;;
21758;SDS011;11041;50.854;20.580;2023-05-14T06:13:53;3.65;;;3.28;;
21758;SDS011;11041;50.854;20.580;2023-05-14T06:16:19;3.47;;;3.08;;
21758;SDS011;11041;50.854;20.580;2023-05-14T06:18:46;4.65;;;3.55;;
21758;SDS011;11041;50.854;20.580;2023-05-14T06:21:14;4.90;;;3.15;;
21758;SDS011;11041;50.854;20.580;2023-05-14T06:23:40;5.28;;;3.60;;
21758;SDS011;11041;50.854;20.580;2023-05-14T06:26:07;6.45;;;3.72;;
21758;SDS011;11041;50.854;20.580;2023-05-14T06:28:33;5.07;;;3.55;;
21758;SDS011;11041;50.854;20.580;2023-05-14T06:30:59;4.30;;;3.47;;
21758;SDS011;11041;50.854;20.580;2023-05-14T06:33:26;3.45;;;3.10;;
21758;SDS011;11041;50.854;20.580;2023-05-14T06:35:57;3.63;;;3.15;;
21758;SDS011;11041;50.854;20.580;2023-05-14T06:38:25;3.38;;;3.08;;
21758;SDS011;11041;50.854;20.580;2023-05-14T06:40:52;3.53;;;2.88;;
21758;SDS011;11041;50.854;20.580;2023-05-14T06:43:18;4.30;;;3.03;;
21758;SDS011;11041;50.854;20.580;2023-05-14T06:45:49;3.47;;;3.17;;
21758;SDS011;11041;50.854;20.580;2023-05-14T06:48:17;2.83;;;2.60;;
21758;SDS011;11041;50.854;20.580;2023-05-14T06:50:47;3.20;;;2.90;;
21758;SDS011;11041;50.854;20.580;2023-05-14T06:53:14;4.32;;;2.60;;
21758;SDS011;11041;50.854;20.580;2023-05-14T06:55:41;3.22;;;2.60;;
21758;SDS011;11041;50.854;20.580;2023-05-14T06:58:08;3.15;;;2.55;;
21758;SDS011;11041;50.854;20.580;2023-05-14T07:00:35;2.92;;;2.60;;
21758;SDS011;11041;50.854;20.580;2023-05-14T07:03:01;2.70;;;2.50;;
21758;SDS011;11041;50.854;20.580;2023-05-14T07:05:28;2.70;;;2.50;;
21758;SDS011;11041;50.854;20.580;2023-05-14T07:07:54;2.83;;;2.50;;
21758;SDS011;11041;50.854;20.580;2023-05-14T07:10:21;2.90;;;2.42;;
21758;SDS011;11041;50.854;20.580;2023-05-14T07:12:48;4.47;;;2.60;;
21758;SDS011;11041;50.854;20.580;2023-05-14T07:15:16;3.22;;;2.83;;
21758;SDS011;11041;50.854;20.580;2023-05-14T07:17:42;3.45;;;2.78;;
21758;SDS011;11041;50.854;20.580;2023-05-14T07:20:09;6.65;;;3.25;;
21758;SDS011;11041;50.854;20.580;2023-05-14T07:22:37;3.83;;;2.70;;
21758;SDS011;11041;50.854;20.580;2023-05-14T07:25:03;2.85;;;2.47;;
21758;SDS011;11041;50.854;20.580;2023-05-14T07:27:30;3.08;;;2.78;;
21758;SDS011;11041;50.854;20.580;2023-05-14T07:29:57;4.22;;;2.60;;
21758;SDS011;11041;50.854;20.580;2023-05-14T07:32:23;2.90;;;2.60;;
21758;SDS011;11041;50.854;20.580;2023-05-14T07:34:50;9.52;;;2.58;;
21758;SDS011;11041;50.854;20.580;2023-05-14T07:37:17;7.20;;;2.90;;
21758;SDS011;11041;50.854;20.580;2023-05-14T07:39:44;5.93;;;2.33;;
21758;SDS011;11041;50.854;20.580;2023-05-14T07:42:10;3.78;;;2.33;;
21758;SDS011;11041;50.854;20.580;2023-05-14T07:44:37;4.28;;;2.72;;
21758;SDS011;11041;50.854;20.580;2023-05-14T07:47:03;3.10;;;1.90;;
21758;SDS011;11041;50.854;20.580;2023-05-14T07:49:31;2.38;;;2.10;;
21758;SDS011;11041;50.854;20.580;2023-05-14T07:51:58;3.03;;;2.70;;
21758;SDS011;11041;50.854;20.580;2023-05-14T07:54:25;3.22;;;2.15;;
21758;SDS011;11041;50.854;20.580;2023-05-14T07:56:51;5.30;;;2.72;;
21758;SDS011;11041;50.854;20.580;2023-05-14T07:59:18;2.50;;;2.28;;
21758;SDS011;11041;50.854;20.580;2023-05-14T08:01:44;2.65;;;2.30;;
21758;SDS011;11041;50.854;20.580;2023-05-14T08:04:11;4.20;;;2.30;;
21758;SDS011;11041;50.854;20.580;2023-05-14T08:06:39;2.83;;;2.33;;
21758;SDS011;11041;50.854;20.580;2023-05-14T08:09:06;3.67;;;2.40;;
21758;SDS011;11041;50.854;20.580;2023-05-14T08:11:34;2.55;;;2.35;;
21758;SDS011;11041;50.854;20.580;2023-05-14T08:14:00;4.28;;;2.50;;
21758;SDS011;11041;50.854;20.580;2023-05-14T08:16:26;5.40;;;2.47;;
21758;SDS011;11041;50.854;20.580;2023-05-14T08:18:53;3.45;;;2.50;;
21758;SDS011;11041;50.854;20.580;2023-05-14T08:21:20;5.88;;;2.67;;
21758;SDS011;11041;50.854;20.580;2023-05-14T08:23:47;3.50;;;2.60;;
21758;SDS011;11041;50.854;20.580;2023-05-14T08:26:13;4.15;;;2.50;;
21758;SDS011;11041;50.854;20.580;2023-05-14T08:28:40;2.88;;;2.35;;
21758;SDS011;11041;50.854;20.580;2023-05-14T08:31:06;3.40;;;2.28;;
21758;SDS011;11041;50.854;20.580;2023-05-14T08:33:33;2.67;;;2.47;;
21758;SDS011;11041;50.854;20.580;2023-05-14T08:35:59;3.75;;;2.58;;
21758;SDS011;11041;50.854;20.580;2023-05-14T08:38:26;3.10;;;2.78;;
21758;SDS011;11041;50.854;20.580;2023-05-14T08:40:55;2.75;;;2.30;;
21758;SDS011;11041;50.854;20.580;2023-05-14T08:43:27;2.70;;;2.30;;
21758;SDS011;11041;50.854;20.580;2023-05-14T08:46:05;6.32;;;2.65;;
21758;SDS011;11041;50.854;20.580;2023-05-14T08:48:32;2.28;;;2.08;;
21758;SDS011;11041;50.854;20.580;2023-05-14T08:51:00;4.47;;;2.10;;
21758;SDS011;11041;50.854;20.580;2023-05-14T08:53:28;4.32;;;2.33;;
21758;SDS011;11041;50.854;20.580;2023-05-14T08:55:56;3.13;;;1.90;;
21758;SDS011;11041;50.854;20.580;2023-05-14T08:58:25;3.72;;;1.90;;
21758;SDS011;11041;50.854;20.580;2023-05-14T09:00:53;3.78;;;2.53;;
21758;SDS011;11041;50.854;20.580;2023-05-14T09:03:21;6.32;;;2.97;;
21758;SDS011;11041;50.854;20.580;2023-05-14T09:05:48;2.90;;;2.30;;
21758;SDS011;11041;50.854;20.580;2023-05-14T09:08:17;3.83;;;2.00;;
21758;SDS011;11041;50.854;20.580;2023-05-14T09:10:44;2.63;;;2.00;;
21758;SDS011;11041;50.854;20.580;2023-05-14T09:13:11;2.17;;;1.70;;
21758;SDS011;11041;50.854;20.580;2023-05-14T09:15:37;3.97;;;2.10;;
21758;SDS011;11041;50.854;20.580;2023-05-14T09:18:06;2.33;;;2.00;;
21758;SDS011;11041;50.854;20.580;2023-05-14T09:20:32;3.50;;;2.13;;
21758;SDS011;11041;50.854;20.580;2023-05-14T09:22:59;2.67;;;2.35;;
21758;SDS011;11041;50.854;20.580;2023-05-14T09:25:26;2.63;;;2.03;;
21758;SDS011;11041;50.854;20.580;2023-05-14T09:27:56;3.45;;;1.90;;
21758;SDS011;11041;50.854;20.580;2023-05-14T09:30:24;1.98;;;1.80;;
21758;SDS011;11041;50.854;20.580;2023-05-14T09:32:52;2.53;;;2.30;;
21758;SDS011;11041;50.854;20.580;2023-05-14T09:35:21;2.97;;;2.30;;
21758;SDS011;11041;50.854;20.580;2023-05-14T09:37:50;2.10;;;1.90;;
21758;SDS011;11041;50.854;20.580;2023-05-14T09:40:20;2.72;;;2.00;;
21758;SDS011;11041;50.854;20.580;2023-05-14T09:42:49;2.67;;;2.25;;
21758;SDS011;11041;50.854;20.580;2023-05-14T09:45:16;2.20;;;2.00;;
21758;SDS011;11041;50.854;20.580;2023-05-14T09:47:43;4.20;;;2.80;;
21758;SDS011;11041;50.854;20.580;2023-05-14T09:50:09;3.03;;;2.28;;
21758;SDS011;11041;50.854;20.580;2023-05-14T09:52:36;4.88;;;1.90;;
21758;SDS011;11041;50.854;20.580;2023-05-14T09:55:03;3.35;;;2.42;;
21758;SDS011;11041;50.854;20.580;2023-05-14T09:57:31;2.95;;;2.13;;
21758;SDS011;11041;50.854;20.580;2023-05-14T09:59:58;4.15;;;2.30;;
21758;SDS011;11041;50.854;20.580;2023-05-14T10:02:26;3.97;;;2.42;;
21758;SDS011;11041;50.854;20.580;2023-05-14T10:05:03;3.90;;;2.40;;
21758;SDS011;11041;50.854;20.580;2023-05-14T10:07:50;6.47;;;2.47;;
21758;SDS011;11041;50.854;20.580;2023-05-14T10:10:21;2.25;;;2.00;;
21758;SDS011;11041;50.854;20.580;2023-05-14T10:12:57;2.95;;;2.17;;
21758;SDS011;11041;50.854;20.580;2023-05-14T10:15:32;3.20;;;2.50;;
21758;SDS011;11041;50.854;20.580;2023-05-14T10:18:12;2.83;;;2.10;;
21758;SDS011;11041;50.854;20.580;2023-05-14T10:20:46;4.63;;;2.40;;
21758;SDS011;11041;50.854;20.580;2023-05-14T10:23:22;3.17;;;2.25;;
21758;SDS011;11041;50.854;20.580;2023-05-14T10:25:48;6.75;;;2.55;;
21758;SDS011;11041;50.854;20.580;2023-05-14T10:28:15;2.60;;;2.30;;
21758;SDS011;11041;50.854;20.580;2023-05-14T10:30:42;3.10;;;2.13;;
21758;SDS011;11041;50.854;20.580;2023-05-14T10:33:14;3.72;;;2.75;;
21758;SDS011;11041;50.854;20.580;2023-05-14T10:38:34;3.45;;;2.30;;
21758;SDS011;11041;50.854;20.580;2023-05-14T10:41:03;3.45;;;2.25;;
21758;SDS011;11041;50.854;20.580;2023-05-14T10:43:37;10.38;;;2.38;;
21758;SDS011;11041;50.854;20.580;2023-05-14T10:46:06;2.53;;;2.33;;
21758;SDS011;11041;50.854;20.580;2023-05-14T10:48:36;2.47;;;2.28;;
21758;SDS011;11041;50.854;20.580;2023-05-14T10:51:07;2.25;;;2.00;;
21758;SDS011;11041;50.854;20.580;2023-05-14T10:53:37;2.40;;;2.20;;
21758;SDS011;11041;50.854;20.580;2023-05-14T10:56:06;3.58;;;1.77;;
21758;SDS011;11041;50.854;20.580;2023-05-14T10:58:45;2.88;;;1.80;;
21758;SDS011;11041;50.854;20.580;2023-05-14T11:01:15;2.17;;;1.98;;
21758;SDS011;11041;50.854;20.580;2023-05-14T11:03:42;4.18;;;2.10;;
21758;SDS011;11041;50.854;20.580;2023-05-14T11:06:11;1.98;;;1.73;;
21758;SDS011;11041;50.854;20.580;2023-05-14T11:08:40;4.65;;;2.25;;
21758;SDS011;11041;50.854;20.580;2023-05-14T11:11:07;2.40;;;1.70;;
21758;SDS011;11041;50.854;20.580;2023-05-14T11:13:35;2.38;;;1.65;;
21758;SDS011;11041;50.854;20.580;2023-05-14T11:16:02;4.85;;;1.80;;
21758;SDS011;11041;50.854;20.580;2023-05-14T11:18:31;2.67;;;2.10;;
21758;SDS011;11041;50.854;20.580;2023-05-14T11:21:02;2.70;;;2.20;;
21758;SDS011;11041;50.854;20.580;2023-05-14T11:23:29;4.95;;;2.70;;
21758;SDS011;11041;50.854;20.580;2023-05-14T11:25:56;3.65;;;2.35;;
21758;SDS011;11041;50.854;20.580;2023-05-14T11:28:23;3.00;;;2.65;;
21758;SDS011;11041;50.854;20.580;2023-05-14T11:30:51;3.35;;;2.22;;
21758;SDS011;11041;50.854;20.580;2023-05-14T11:33:19;6.75;;;2.85;;
21758;SDS011;11041;50.854;20.580;2023-05-14T11:35:46;5.65;;;2.70;;
21758;SDS011;11041;50.854;20.580;2023-05-14T11:38:21;3.25;;;1.92;;
21758;SDS011;11041;50.854;20.580;2023-05-14T11:40:51;2.45;;;2.25;;
21758;SDS011;11041;50.854;20.580;2023-05-14T11:43:23;6.35;;;2.30;;
21758;SDS011;11041;50.854;20.580;2023-05-14T11:45:54;6.00;;;2.38;;
21758;SDS011;11041;50.854;20.580;2023-05-14T11:48:21;2.45;;;1.90;;
21758;SDS011;11041;50.854;20.580;2023-05-14T11:50:49;2.10;;;2.00;;
21758;SDS011;11041;50.854;20.580;2023-05-14T11:53:18;3.67;;;1.98;;
21758;SDS011;11041;50.854;20.580;2023-05-14T11:55:50;3.55;;;1.92;;
21758;SDS011;11041;50.854;20.580;2023-05-14T11:58:20;2.28;;;2.03;;
21758;SDS011;11041;50.854;20.580;2023-05-14T12:00:49;2.58;;;1.90;;
21758;SDS011;11041;50.854;20.580;2023-05-14T12:03:20;3.55;;;1.75;;
21758;SDS011;11041;50.854;20.580;2023-05-14T12:05:59;2.13;;;1.92;;
21758;SDS011;11041;50.854;20.580;2023-05-14T12:08:31;2.45;;;2.25;;
21758;SDS011;11041;50.854;20.580;2023-05-14T12:10:58;4.90;;;2.30;;
21758;SDS011;11041;50.854;20.580;2023-05-14T12:13:26;2.47;;;2.28;;
21758;SDS011;11041;50.854;20.580;2023-05-14T12:15:55;3.13;;;2.53;;
21758;SDS011;11041;50.854;20.580;2023-05-14T12:18:27;5.22;;;2.67;;
21758;SDS011;11041;50.854;20.580;2023-05-14T12:21:02;3.78;;;2.47;;
21758;SDS011;11041;50.854;20.580;2023-05-14T12:23:33;5.20;;;2.40;;
21758;SDS011;11041;50.854;20.580;2023-05-14T12:26:08;6.65;;;2.63;;
21758;SDS011;11041;50.854;20.580;2023-05-14T12:28:37;2.78;;;2.58;;
21758;SDS011;11041;50.854;20.580;2023-05-14T12:31:07;3.88;;;2.60;;
21758;SDS011;11041;50.854;20.580;2023-05-14T12:33:34;2.83;;;2.45;;
21758;SDS011;11041;50.854;20.580;2023-05-14T12:36:00;5.47;;;2.70;;
21758;SDS011;11041;50.854;20.580;2023-05-14T12:38:27;3.78;;;2.97;;
21758;SDS011;11041;50.854;20.580;2023-05-14T12:40:53;6.43;;;3.25;;
21758;SDS011;11041;50.854;20.580;2023-05-14T12:43:20;4.30;;;2.72;;
21758;SDS011;11041;50.854;20.580;2023-05-14T12:45:46;3.10;;;2.80;;
21758;SDS011;11041;50.854;20.580;2023-05-14T12:48:13;3.33;;;2.75;;
21758;SDS011;11041;50.854;20.580;2023-05-14T12:50:39;5.80;;;2.92;;
21758;SDS011;11041;50.854;20.580;2023-05-14T12:53:06;6.32;;;3.13;;
21758;SDS011;11041;50.854;20.580;2023-05-14T12:55:32;3.53;;;2.67;;
21758;SDS011;11041;50.854;20.580;2023-05-14T12:57:59;4.30;;;2.75;;
21758;SDS011;11041;50.854;20.580;2023-05-14T13:00:25;4.28;;;3.35;;
21758;SDS011;11041;50.854;20.580;2023-05-14T13:02:52;3.15;;;2.85;;
21758;SDS011;11041;50.854;20.580;2023-05-14T13:05:18;3.08;;;2.78;;
21758;SDS011;11041;50.854;20.580;2023-05-14T13:07:45;5.07;;;3.35;;
21758;SDS011;11041;50.854;20.580;2023-05-14T13:10:11;8.30;;;2.88;;
21758;SDS011;11041;50.854;20.580;2023-05-14T13:12:38;6.22;;;3.05;;
21758;SDS011;11041;50.854;20.580;2023-05-14T13:15:05;5.60;;;2.88;;
21758;SDS011;11041;50.854;20.580;2023-05-14T13:17:32;4.57;;;2.33;;
21758;SDS011;11041;50.854;20.580;2023-05-14T13:19:58;4.07;;;2.78;;
21758;SDS011;11041;50.854;20.580;2023-05-14T13:22:25;4.03;;;3.63;;
21758;SDS011;11041;50.854;20.580;2023-05-14T13:24:51;3.58;;;2.47;;
21758;SDS011;11041;50.854;20.580;2023-05-14T13:27:18;4.65;;;3.55;;
21758;SDS011;11041;50.854;20.580;2023-05-14T13:29:44;2.53;;;2.10;;
21758;SDS011;11041;50.854;20.580;2023-05-14T13:32:11;3.70;;;2.15;;
21758;SDS011;11041;50.854;20.580;2023-05-14T13:34:37;3.33;;;2.13;;
21758;SDS011;11041;50.854;20.580;2023-05-14T13:37:04;3.85;;;2.40;;
21758;SDS011;11041;50.854;20.580;2023-05-14T13:39:30;4.00;;;2.45;;
21758;SDS011;11041;50.854;20.580;2023-05-14T13:41:57;2.33;;;2.13;;
21758;SDS011;11041;50.854;20.580;2023-05-14T13:44:23;3.42;;;2.40;;
21758;SDS011;11041;50.854;20.580;2023-05-14T13:46:50;4.00;;;2.17;;
21758;SDS011;11041;50.854;20.580;2023-05-14T13:49:17;8.05;;;3.05;;
21758;SDS011;11041;50.854;20.580;2023-05-14T13:51:44;4.43;;;2.53;;
21758;SDS011;11041;50.854;20.580;2023-05-14T13:54:10;3.65;;;2.53;;
21758;SDS011;11041;50.854;20.580;2023-05-14T13:56:37;6.35;;;2.47;;
21758;SDS011;11041;50.854;20.580;2023-05-14T13:59:03;9.77;;;2.42;;
21758;SDS011;11041;50.854;20.580;2023-05-14T14:01:30;4.35;;;2.42;;
21758;SDS011;11041;50.854;20.580;2023-05-14T14:03:57;3.85;;;2.10;;
21758;SDS011;11041;50.854;20.580;2023-05-14T14:06:24;2.38;;;2.17;;
21758;SDS011;11041;50.854;20.580;2023-05-14T14:08:54;3.85;;;2.20;;
21758;SDS011;11041;50.854;20.580;2023-05-14T14:11:21;2.08;;;1.98;;
21758;SDS011;11041;50.854;20.580;2023-05-14T14:13:49;2.67;;;2.30;;
21758;SDS011;11041;50.854;20.580;2023-05-14T14:16:16;3.15;;;2.20;;
21758;SDS011;11041;50.854;20.580;2023-05-14T14:18:43;3.30;;;2.28;;
21758;SDS011;11041;50.854;20.580;2023-05-14T14:21:10;2.95;;;2.35;;
21758;SDS011;11041;50.854;20.580;2023-05-14T14:23:36;5.72;;;2.40;;
21758;SDS011;11041;50.854;20.580;2023-05-14T14:26:03;2.53;;;2.05;;
21758;SDS011;11041;50.854;20.580;2023-05-14T14:28:29;7.38;;;2.55;;
21758;SDS011;11041;50.854;20.580;2023-05-14T14:30:56;6.28;;;2.17;;
21758;SDS011;11041;50.854;20.580;2023-05-14T14:33:22;4.32;;;2.20;;
21758;SDS011;11041;50.854;20.580;2023-05-14T14:35:49;6.22;;;2.30;;
21758;SDS011;11041;50.854;20.580;2023-05-14T14:38:16;3.35;;;2.95;;
21758;SDS011;11041;50.854;20.580;2023-05-14T14:40:42;4.60;;;2.35;;
21758;SDS011;11041;50.854;20.580;2023-05-14T14:43:10;4.45;;;2.65;;